sensor_id;sensor_type;location;lat;lon;timestamp;P1;durP1;ratioP1;P2;durP2;ratioP2
71648;SDS011;70112;45.624;11.760;2023-07-09T00:01:57;8.30;;;7.00;;
71648;SDS011;70112;45.624;11.760;2023-07-09T00:04:23;9.80;;;6.90;;
71648;SDS011;70112;45.624;11.760;2023-07-09T00:06:48;9.60;;;7.00;;
71648;SDS011;70112;45.624;11.760;2023-07-09T00:09:18;9.60;;;6.70;;
71648;SDS011;70112;45.624;11.760;2023-07-09T00:11:46;12.00;;;7.10;;
71648;SDS011;70112;45.624;11.760;2023-07-09T00:14:15;9.90;;;7.00;;
71648;SDS011;70112;45.624;11.760;2023-07-09T00:16:43;12.20;;;6.80;;
71648;SDS011;70112;45.624;11.760;2023-07-09T00:19:14;10.20;;;7.50;;
71648;SDS011;70112;45.624;11.760;2023-07-09T00:21:45;9.30;;;6.90;;
71648;SDS011;70112;45.624;11.760;2023-07-09T00:24:12;9.50;;;7.30;;
71648;SDS011;70112;45.624;11.760;2023-07-09T00:26:38;11.60;;;7.00;;
71648;SDS011;70112;45.624;11.760;2023-07-09T00:29:11;8.30;;;6.90;;
71648;SDS011;70112;45.624;11.760;2023-07-09T00:31:37;9.60;;;6.90;;
71648;SDS011;70112;45.624;11.760;2023-07-09T00:34:08;11.20;;;7.70;;
71648;SDS011;70112;45.624;11.760;2023-07-09T00:36:38;12.40;;;7.90;;
71648;SDS011;70112;45.624;11.760;2023-07-09T00:39:04;10.80;;;7.30;;
71648;SDS011;70112;45.624;11.760;2023-07-09T00:41:35;9.20;;;7.20;;
71648;SDS011;70112;45.624;11.760;2023-07-09T00:49:29;10.10;;;7.60;;
71648;SDS011;70112;45.624;11.760;2023-07-09T00:51:59;10.80;;;7.60;;
71648;SDS011;70112;45.624;11.760;2023-07-09T00:54:35;9.80;;;7.80;;
71648;SDS011;70112;45.624;11.760;2023-07-09T00:57:11;10.60;;;7.30;;
71648;SDS011;70112;45.624;11.760;2023-07-09T00:59:47;11.50;;;8.40;;
71648;SDS011;70112;45.624;11.760;2023-07-09T01:02:23;12.90;;;8.40;;
71648;SDS011;70112;45.624;11.760;2023-07-09T01:04:56;9.70;;;7.80;;
71648;SDS011;70112;45.624;11.760;2023-07-09T01:07:26;12.00;;;7.40;;
71648;SDS011;70112;45.624;11.760;2023-07-09T01:09:53;10.40;;;7.90;;
71648;SDS011;70112;45.624;11.760;2023-07-09T01:12:20;8.00;;;7.20;;
71648;SDS011;70112;45.624;11.760;2023-07-09T01:14:47;9.60;;;7.20;;
71648;SDS011;70112;45.624;11.760;2023-07-09T01:17:17;10.60;;;8.20;;
71648;SDS011;70112;45.624;11.760;2023-07-09T01:19:49;12.60;;;8.00;;
71648;SDS011;70112;45.624;11.760;2023-07-09T01:22:18;11.60;;;7.90;;
71648;SDS011;70112;45.624;11.760;2023-07-09T01:27:35;9.50;;;7.50;;
71648;SDS011;70112;45.624;11.760;2023-07-09T01:30:11;9.70;;;7.50;;
71648;SDS011;70112;45.624;11.760;2023-07-09T01:32:42;13.40;;;8.10;;
71648;SDS011;70112;45.624;11.760;2023-07-09T01:35:13;14.00;;;7.80;;
71648;SDS011;70112;45.624;11.760;2023-07-09T01:37:41;10.20;;;7.80;;
71648;SDS011;70112;45.624;11.760;2023-07-09T01:40:10;9.40;;;8.00;;
71648;SDS011;70112;45.624;11.760;2023-07-09T01:42:37;9.10;;;7.60;;
71648;SDS011;70112;45.624;11.760;2023-07-09T01:45:05;10.80;;;7.90;;
71648;SDS011;70112;45.624;11.760;2023-07-09T01:47:32;8.60;;;7.70;;
71648;SDS011;70112;45.624;11.760;2023-07-09T01:49:58;13.70;;;7.90;;
71648;SDS011;70112;45.624;11.760;2023-07-09T01:52:29;10.90;;;7.90;;
71648;SDS011;70112;45.624;11.760;2023-07-09T01:54:56;11.30;;;7.90;;
71648;SDS011;70112;45.624;11.760;2023-07-09T01:57:27;11.50;;;8.00;;
71648;SDS011;70112;45.624;11.760;2023-07-09T02:00:03;11.30;;;7.50;;
71648;SDS011;70112;45.624;11.760;2023-07-09T02:02:31;12.20;;;7.80;;
71648;SDS011;70112;45.624;11.760;2023-07-09T02:04:58;8.90;;;7.50;;
71648;SDS011;70112;45.624;11.760;2023-07-09T02:07:25;9.70;;;7.70;;
71648;SDS011;70112;45.624;11.760;2023-07-09T02:09:51;10.10;;;7.50;;
71648;SDS011;70112;45.624;11.760;2023-07-09T02:12:17;12.20;;;7.80;;
71648;SDS011;70112;45.624;11.760;2023-07-09T02:14:44;12.30;;;7.70;;
71648;SDS011;70112;45.624;11.760;2023-07-09T02:17:12;10.80;;;8.20;;
71648;SDS011;70112;45.624;11.760;2023-07-09T02:19:38;12.60;;;9.30;;
71648;SDS011;70112;45.624;11.760;2023-07-09T02:22:05;12.00;;;9.30;;
71648;SDS011;70112;45.624;11.760;2023-07-09T02:24:32;19.60;;;10.00;;
71648;SDS011;70112;45.624;11.760;2023-07-09T02:27:00;14.40;;;9.20;;
71648;SDS011;70112;45.624;11.760;2023-07-09T02:29:28;19.60;;;8.60;;
71648;SDS011;70112;45.624;11.760;2023-07-09T02:31:56;11.60;;;8.50;;
71648;SDS011;70112;45.624;11.760;2023-07-09T02:34:24;11.60;;;8.80;;
71648;SDS011;70112;45.624;11.760;2023-07-09T02:36:53;14.90;;;9.20;;
71648;SDS011;70112;45.624;11.760;2023-07-09T02:39:20;11.50;;;9.30;;
71648;SDS011;70112;45.624;11.760;2023-07-09T02:41:46;13.20;;;9.50;;
71648;SDS011;70112;45.624;11.760;2023-07-09T02:44:12;13.10;;;9.00;;
71648;SDS011;70112;45.624;11.760;2023-07-09T02:46:37;12.00;;;9.60;;
71648;SDS011;70112;45.624;11.760;2023-07-09T02:49:04;15.40;;;10.20;;
71648;SDS011;70112;45.624;11.760;2023-07-09T02:51:30;12.00;;;10.20;;
71648;SDS011;70112;45.624;11.760;2023-07-09T02:53:57;15.10;;;11.60;;
71648;SDS011;70112;45.624;11.760;2023-07-09T02:56:24;14.20;;;11.60;;
71648;SDS011;70112;45.624;11.760;2023-07-09T02:58:50;14.40;;;11.60;;
71648;SDS011;70112;45.624;11.760;2023-07-09T03:01:16;13.80;;;11.90;;
71648;SDS011;70112;45.624;11.760;2023-07-09T03:03:42;19.90;;;13.30;;
71648;SDS011;70112;45.624;11.760;2023-07-09T03:06:08;14.50;;;12.70;;
71648;SDS011;70112;45.624;11.760;2023-07-09T03:08:34;13.80;;;12.40;;
71648;SDS011;70112;45.624;11.760;2023-07-09T03:11:07;14.50;;;12.20;;
71648;SDS011;70112;45.624;11.760;2023-07-09T03:13:34;18.10;;;11.90;;
71648;SDS011;70112;45.624;11.760;2023-07-09T03:16:00;12.50;;;11.20;;
71648;SDS011;70112;45.624;11.760;2023-07-09T03:18:25;15.00;;;13.10;;
71648;SDS011;70112;45.624;11.760;2023-07-09T03:20:51;15.50;;;12.30;;
71648;SDS011;70112;45.624;11.760;2023-07-09T03:23:16;18.30;;;12.10;;
71648;SDS011;70112;45.624;11.760;2023-07-09T03:25:45;17.20;;;11.50;;
71648;SDS011;70112;45.624;11.760;2023-07-09T03:28:11;13.30;;;11.90;;
71648;SDS011;70112;45.624;11.760;2023-07-09T03:30:47;16.70;;;12.80;;
71648;SDS011;70112;45.624;11.760;2023-07-09T03:33:15;18.70;;;14.60;;
71648;SDS011;70112;45.624;11.760;2023-07-09T03:35:42;18.00;;;14.20;;
71648;SDS011;70112;45.624;11.760;2023-07-09T03:38:09;20.50;;;15.40;;
71648;SDS011;70112;45.624;11.760;2023-07-09T03:40:36;20.40;;;15.40;;
71648;SDS011;70112;45.624;11.760;2023-07-09T03:43:03;16.90;;;14.80;;
71648;SDS011;70112;45.624;11.760;2023-07-09T03:45:30;20.10;;;15.70;;
71648;SDS011;70112;45.624;11.760;2023-07-09T03:47:56;17.30;;;14.30;;
71648;SDS011;70112;45.624;11.760;2023-07-09T03:50:22;18.20;;;14.30;;
71648;SDS011;70112;45.624;11.760;2023-07-09T03:52:47;17.80;;;15.00;;
71648;SDS011;70112;45.624;11.760;2023-07-09T03:55:13;18.80;;;13.90;;
71648;SDS011;70112;45.624;11.760;2023-07-09T03:57:40;15.50;;;13.20;;
71648;SDS011;70112;45.624;11.760;2023-07-09T04:00:06;16.70;;;13.30;;
71648;SDS011;70112;45.624;11.760;2023-07-09T04:02:36;16.80;;;14.40;;
71648;SDS011;70112;45.624;11.760;2023-07-09T04:05:03;17.20;;;14.50;;
71648;SDS011;70112;45.624;11.760;2023-07-09T04:07:29;15.60;;;13.50;;
71648;SDS011;70112;45.624;11.760;2023-07-09T04:09:54;18.00;;;14.20;;
71648;SDS011;70112;45.624;11.760;2023-07-09T04:12:20;16.50;;;14.20;;
71648;SDS011;70112;45.624;11.760;2023-07-09T04:14:45;17.70;;;13.50;;
71648;SDS011;70112;45.624;11.760;2023-07-09T04:17:11;19.00;;;12.50;;
71648;SDS011;70112;45.624;11.760;2023-07-09T04:19:37;15.20;;;13.30;;
71648;SDS011;70112;45.624;11.760;2023-07-09T04:22:02;17.90;;;14.10;;
71648;SDS011;70112;45.624;11.760;2023-07-09T04:24:30;20.30;;;14.10;;
71648;SDS011;70112;45.624;11.760;2023-07-09T04:26:57;21.50;;;14.20;;
71648;SDS011;70112;45.624;11.760;2023-07-09T04:29:23;21.60;;;13.90;;
71648;SDS011;70112;45.624;11.760;2023-07-09T04:31:49;19.60;;;14.30;;
71648;SDS011;70112;45.624;11.760;2023-07-09T04:34:14;14.40;;;12.70;;
71648;SDS011;70112;45.624;11.760;2023-07-09T04:36:40;16.70;;;13.60;;
71648;SDS011;70112;45.624;11.760;2023-07-09T04:39:05;19.50;;;14.40;;
71648;SDS011;70112;45.624;11.760;2023-07-09T04:41:31;17.60;;;14.70;;
71648;SDS011;70112;45.624;11.760;2023-07-09T04:43:56;17.10;;;13.40;;
71648;SDS011;70112;45.624;11.760;2023-07-09T04:46:22;15.70;;;14.10;;
71648;SDS011;70112;45.624;11.760;2023-07-09T04:48:47;18.10;;;13.60;;
71648;SDS011;70112;45.624;11.760;2023-07-09T04:51:13;18.80;;;13.40;;
71648;SDS011;70112;45.624;11.760;2023-07-09T04:53:38;14.70;;;12.90;;
71648;SDS011;70112;45.624;11.760;2023-07-09T04:56:04;16.00;;;13.60;;
71648;SDS011;70112;45.624;11.760;2023-07-09T04:58:30;14.60;;;12.50;;
71648;SDS011;70112;45.624;11.760;2023-07-09T05:00:59;14.00;;;12.40;;
71648;SDS011;70112;45.624;11.760;2023-07-09T05:03:25;13.90;;;11.40;;
71648;SDS011;70112;45.624;11.760;2023-07-09T05:05:51;12.70;;;11.40;;
71648;SDS011;70112;45.624;11.760;2023-07-09T05:08:18;16.40;;;11.90;;
71648;SDS011;70112;45.624;11.760;2023-07-09T05:10:44;17.80;;;12.20;;
71648;SDS011;70112;45.624;11.760;2023-07-09T05:13:11;14.40;;;11.60;;
71648;SDS011;70112;45.624;11.760;2023-07-09T05:15:40;47.80;;;13.50;;
71648;SDS011;70112;45.624;11.760;2023-07-09T05:18:07;14.20;;;11.00;;
71648;SDS011;70112;45.624;11.760;2023-07-09T05:20:33;16.80;;;11.60;;
71648;SDS011;70112;45.624;11.760;2023-07-09T05:23:00;19.50;;;11.10;;
71648;SDS011;70112;45.624;11.760;2023-07-09T05:25:26;14.70;;;11.40;;
71648;SDS011;70112;45.624;11.760;2023-07-09T05:27:51;17.20;;;11.90;;
71648;SDS011;70112;45.624;11.760;2023-07-09T05:30:18;15.90;;;12.00;;
71648;SDS011;70112;45.624;11.760;2023-07-09T05:32:44;15.20;;;11.60;;
71648;SDS011;70112;45.624;11.760;2023-07-09T05:35:10;14.00;;;11.10;;
71648;SDS011;70112;45.624;11.760;2023-07-09T05:37:36;13.80;;;9.90;;
71648;SDS011;70112;45.624;11.760;2023-07-09T05:40:02;12.10;;;8.80;;
71648;SDS011;70112;45.624;11.760;2023-07-09T05:42:29;13.90;;;9.00;;
71648;SDS011;70112;45.624;11.760;2023-07-09T05:44:55;10.60;;;8.30;;
71648;SDS011;70112;45.624;11.760;2023-07-09T05:47:20;14.40;;;8.40;;
71648;SDS011;70112;45.624;11.760;2023-07-09T05:49:46;11.80;;;8.00;;
71648;SDS011;70112;45.624;11.760;2023-07-09T05:52:15;9.70;;;7.60;;
71648;SDS011;70112;45.624;11.760;2023-07-09T05:54:41;14.50;;;7.90;;
71648;SDS011;70112;45.624;11.760;2023-07-09T05:57:06;9.70;;;8.30;;
71648;SDS011;70112;45.624;11.760;2023-07-09T05:59:32;10.60;;;7.10;;
71648;SDS011;70112;45.624;11.760;2023-07-09T06:01:57;10.10;;;7.80;;
71648;SDS011;70112;45.624;11.760;2023-07-09T06:04:25;11.50;;;7.00;;
71648;SDS011;70112;45.624;11.760;2023-07-09T06:06:51;9.90;;;7.20;;
71648;SDS011;70112;45.624;11.760;2023-07-09T06:09:17;10.30;;;7.30;;
71648;SDS011;70112;45.624;11.760;2023-07-09T06:11:43;14.80;;;7.70;;
71648;SDS011;70112;45.624;11.760;2023-07-09T06:14:09;11.70;;;7.80;;
71648;SDS011;70112;45.624;11.760;2023-07-09T06:16:35;9.00;;;7.70;;
71648;SDS011;70112;45.624;11.760;2023-07-09T06:19:02;9.30;;;7.60;;
71648;SDS011;70112;45.624;11.760;2023-07-09T06:21:29;10.40;;;7.60;;
71648;SDS011;70112;45.624;11.760;2023-07-09T06:23:54;10.70;;;7.60;;
71648;SDS011;70112;45.624;11.760;2023-07-09T06:26:20;9.40;;;7.70;;
71648;SDS011;70112;45.624;11.760;2023-07-09T06:28:46;11.10;;;7.90;;
71648;SDS011;70112;45.624;11.760;2023-07-09T06:31:11;12.80;;;7.70;;
71648;SDS011;70112;45.624;11.760;2023-07-09T06:33:37;12.00;;;7.00;;
71648;SDS011;70112;45.624;11.760;2023-07-09T06:36:03;11.10;;;7.00;;
71648;SDS011;70112;45.624;11.760;2023-07-09T06:38:30;7.00;;;6.30;;
71648;SDS011;70112;45.624;11.760;2023-07-09T06:40:56;11.20;;;6.90;;
71648;SDS011;70112;45.624;11.760;2023-07-09T06:43:23;10.40;;;7.50;;
71648;SDS011;70112;45.624;11.760;2023-07-09T06:45:52;8.50;;;7.10;;
71648;SDS011;70112;45.624;11.760;2023-07-09T06:48:19;11.10;;;7.30;;
71648;SDS011;70112;45.624;11.760;2023-07-09T06:50:45;11.70;;;6.50;;
71648;SDS011;70112;45.624;11.760;2023-07-09T06:53:12;13.00;;;7.10;;
71648;SDS011;70112;45.624;11.760;2023-07-09T06:55:37;8.60;;;7.40;;
71648;SDS011;70112;45.624;11.760;2023-07-09T06:58:03;13.70;;;7.10;;
71648;SDS011;70112;45.624;11.760;2023-07-09T07:00:29;11.30;;;7.10;;
71648;SDS011;70112;45.624;11.760;2023-07-09T07:02:54;11.30;;;6.90;;
71648;SDS011;70112;45.624;11.760;2023-07-09T07:05:20;7.20;;;6.20;;
71648;SDS011;70112;45.624;11.760;2023-07-09T07:07:45;6.90;;;5.90;;
71648;SDS011;70112;45.624;11.760;2023-07-09T07:10:11;7.30;;;6.50;;
71648;SDS011;70112;45.624;11.760;2023-07-09T07:12:45;10.80;;;6.10;;
71648;SDS011;70112;45.624;11.760;2023-07-09T07:15:15;9.00;;;6.50;;
71648;SDS011;70112;45.624;11.760;2023-07-09T07:17:42;7.20;;;5.90;;
71648;SDS011;70112;45.624;11.760;2023-07-09T07:20:10;9.70;;;6.30;;
71648;SDS011;70112;45.624;11.760;2023-07-09T07:22:37;9.50;;;5.90;;
71648;SDS011;70112;45.624;11.760;2023-07-09T07:25:04;7.10;;;6.30;;
71648;SDS011;70112;45.624;11.760;2023-07-09T07:27:30;8.40;;;5.80;;
71648;SDS011;70112;45.624;11.760;2023-07-09T07:29:56;7.20;;;5.50;;
71648;SDS011;70112;45.624;11.760;2023-07-09T07:32:23;8.00;;;6.00;;
71648;SDS011;70112;45.624;11.760;2023-07-09T07:34:49;7.60;;;6.30;;
71648;SDS011;70112;45.624;11.760;2023-07-09T07:37:17;6.80;;;6.20;;
71648;SDS011;70112;45.624;11.760;2023-07-09T07:39:44;10.90;;;6.70;;
71648;SDS011;70112;45.624;11.760;2023-07-09T07:42:10;7.40;;;6.70;;
71648;SDS011;70112;45.624;11.760;2023-07-09T07:44:36;8.80;;;7.50;;
71648;SDS011;70112;45.624;11.760;2023-07-09T07:47:01;9.90;;;7.50;;
71648;SDS011;70112;45.624;11.760;2023-07-09T07:49:28;12.40;;;7.70;;
71648;SDS011;70112;45.624;11.760;2023-07-09T07:51:53;11.70;;;7.50;;
71648;SDS011;70112;45.624;11.760;2023-07-09T07:54:19;10.10;;;7.60;;
71648;SDS011;70112;45.624;11.760;2023-07-09T07:56:44;11.50;;;8.10;;
71648;SDS011;70112;45.624;11.760;2023-07-09T07:59:10;11.80;;;8.60;;
71648;SDS011;70112;45.624;11.760;2023-07-09T08:01:35;12.80;;;7.70;;
71648;SDS011;70112;45.624;11.760;2023-07-09T08:04:05;9.60;;;7.80;;
71648;SDS011;70112;45.624;11.760;2023-07-09T08:06:30;12.80;;;8.40;;
71648;SDS011;70112;45.624;11.760;2023-07-09T08:08:57;13.10;;;9.00;;
71648;SDS011;70112;45.624;11.760;2023-07-09T08:11:23;13.70;;;8.30;;
71648;SDS011;70112;45.624;11.760;2023-07-09T08:13:50;11.60;;;8.20;;
71648;SDS011;70112;45.624;11.760;2023-07-09T08:16:16;10.40;;;8.10;;
71648;SDS011;70112;45.624;11.760;2023-07-09T08:18:42;12.80;;;8.90;;
71648;SDS011;70112;45.624;11.760;2023-07-09T08:21:07;12.60;;;8.50;;
71648;SDS011;70112;45.624;11.760;2023-07-09T08:23:34;10.90;;;8.40;;
71648;SDS011;70112;45.624;11.760;2023-07-09T08:26:01;10.90;;;8.30;;
71648;SDS011;70112;45.624;11.760;2023-07-09T08:28:29;11.60;;;8.00;;
71648;SDS011;70112;45.624;11.760;2023-07-09T08:30:55;8.90;;;8.00;;
71648;SDS011;70112;45.624;11.760;2023-07-09T08:33:22;9.60;;;7.80;;
71648;SDS011;70112;45.624;11.760;2023-07-09T08:35:50;9.30;;;7.80;;
71648;SDS011;70112;45.624;11.760;2023-07-09T08:38:17;11.30;;;8.30;;
71648;SDS011;70112;45.624;11.760;2023-07-09T08:41:08;8.70;;;7.40;;
71648;SDS011;70112;45.624;11.760;2023-07-09T08:44:06;10.80;;;8.10;;
71648;SDS011;70112;45.624;11.760;2023-07-09T08:47:15;13.10;;;7.80;;
71648;SDS011;70112;45.624;11.760;2023-07-09T08:52:30;8.60;;;7.40;;
71648;SDS011;70112;45.624;11.760;2023-07-09T08:55:04;11.80;;;7.10;;
71648;SDS011;70112;45.624;11.760;2023-07-09T08:57:37;9.60;;;7.80;;
71648;SDS011;70112;45.624;11.760;2023-07-09T09:00:30;8.40;;;7.20;;
71648;SDS011;70112;45.624;11.760;2023-07-09T09:05:33;10.30;;;7.50;;
71648;SDS011;70112;45.624;11.760;2023-07-09T09:08:33;10.90;;;7.60;;
71648;SDS011;70112;45.624;11.760;2023-07-09T09:11:14;12.70;;;7.20;;
71648;SDS011;70112;45.624;11.760;2023-07-09T09:13:42;9.60;;;6.40;;
71648;SDS011;70112;45.624;11.760;2023-07-09T09:16:21;12.60;;;7.60;;
71648;SDS011;70112;45.624;11.760;2023-07-09T09:18:50;13.00;;;7.80;;
71648;SDS011;70112;45.624;11.760;2023-07-09T09:21:23;7.90;;;7.00;;
71648;SDS011;70112;45.624;11.760;2023-07-09T09:23:54;11.30;;;7.40;;
71648;SDS011;70112;45.624;11.760;2023-07-09T09:28:52;8.60;;;7.00;;
71648;SDS011;70112;45.624;11.760;2023-07-09T09:31:18;10.00;;;6.30;;
71648;SDS011;70112;45.624;11.760;2023-07-09T09:33:46;9.70;;;6.10;;
71648;SDS011;70112;45.624;11.760;2023-07-09T09:36:23;8.50;;;5.80;;
71648;SDS011;70112;45.624;11.760;2023-07-09T09:38:51;9.50;;;5.90;;
71648;SDS011;70112;45.624;11.760;2023-07-09T09:41:19;7.30;;;5.40;;
71648;SDS011;70112;45.624;11.760;2023-07-09T09:43:48;7.90;;;5.40;;
71648;SDS011;70112;45.624;11.760;2023-07-09T09:46:22;6.20;;;5.00;;
71648;SDS011;70112;45.624;11.760;2023-07-09T09:48:51;8.90;;;5.50;;
71648;SDS011;70112;45.624;11.760;2023-07-09T09:51:20;5.20;;;4.70;;
71648;SDS011;70112;45.624;11.760;2023-07-09T09:53:50;7.60;;;5.40;;
71648;SDS011;70112;45.624;11.760;2023-07-09T09:56:25;5.70;;;5.10;;
71648;SDS011;70112;45.624;11.760;2023-07-09T09:59:27;6.50;;;4.80;;
71648;SDS011;70112;45.624;11.760;2023-07-09T10:02:37;5.80;;;4.90;;
71648;SDS011;70112;45.624;11.760;2023-07-09T10:06:17;11.50;;;5.20;;
71648;SDS011;70112;45.624;11.760;2023-07-09T10:12:19;6.50;;;4.70;;
71648;SDS011;70112;45.624;11.760;2023-07-09T10:39:14;6.70;;;5.90;;
71648;SDS011;70112;45.624;11.760;2023-07-09T10:45:24;7.70;;;5.90;;
71648;SDS011;70112;45.624;11.760;2023-07-09T10:55:21;7.50;;;6.10;;
71648;SDS011;70112;45.624;11.760;2023-07-09T11:05:10;5.20;;;4.70;;
71648;SDS011;70112;45.624;11.760;2023-07-09T11:08:12;11.60;;;5.30;;
71648;SDS011;70112;45.624;11.760;2023-07-09T11:10:46;8.30;;;5.20;;
71648;SDS011;70112;45.624;11.760;2023-07-09T11:13:36;8.10;;;5.00;;
71648;SDS011;70112;45.624;11.760;2023-07-09T11:16:06;8.50;;;5.50;;
71648;SDS011;70112;45.624;11.760;2023-07-09T11:18:34;10.40;;;6.00;;
71648;SDS011;70112;45.624;11.760;2023-07-09T11:21:05;7.10;;;6.00;;
71648;SDS011;70112;45.624;11.760;2023-07-09T11:24:00;8.20;;;5.80;;
71648;SDS011;70112;45.624;11.760;2023-07-09T11:26:27;9.60;;;6.00;;
71648;SDS011;70112;45.624;11.760;2023-07-09T11:29:17;7.20;;;6.20;;
71648;SDS011;70112;45.624;11.760;2023-07-09T11:31:45;9.90;;;6.30;;
71648;SDS011;70112;45.624;11.760;2023-07-09T11:37:00;8.10;;;6.10;;
71648;SDS011;70112;45.624;11.760;2023-07-09T11:44:51;8.80;;;6.50;;
71648;SDS011;70112;45.624;11.760;2023-07-09T11:47:28;9.80;;;6.20;;
71648;SDS011;70112;45.624;11.760;2023-07-09T11:50:04;8.20;;;6.20;;
71648;SDS011;70112;45.624;11.760;2023-07-09T11:52:45;7.70;;;6.90;;
71648;SDS011;70112;45.624;11.760;2023-07-09T11:57:58;10.70;;;7.00;;
71648;SDS011;70112;45.624;11.760;2023-07-09T12:00:28;11.60;;;7.00;;
71648;SDS011;70112;45.624;11.760;2023-07-09T12:02:56;10.40;;;6.90;;
71648;SDS011;70112;45.624;11.760;2023-07-09T12:05:27;7.40;;;6.60;;
71648;SDS011;70112;45.624;11.760;2023-07-09T12:07:54;11.20;;;7.30;;
71648;SDS011;70112;45.624;11.760;2023-07-09T12:10:24;9.50;;;6.50;;
71648;SDS011;70112;45.624;11.760;2023-07-09T12:12:57;9.90;;;7.10;;
71648;SDS011;70112;45.624;11.760;2023-07-09T12:15:26;9.50;;;7.10;;
71648;SDS011;70112;45.624;11.760;2023-07-09T12:17:56;8.80;;;6.70;;
71648;SDS011;70112;45.624;11.760;2023-07-09T12:20:23;12.10;;;6.80;;
71648;SDS011;70112;45.624;11.760;2023-07-09T12:22:49;8.40;;;6.70;;
71648;SDS011;70112;45.624;11.760;2023-07-09T12:25:23;14.50;;;7.50;;
71648;SDS011;70112;45.624;11.760;2023-07-09T12:27:52;9.40;;;7.20;;
71648;SDS011;70112;45.624;11.760;2023-07-09T12:30:19;10.20;;;6.50;;
71648;SDS011;70112;45.624;11.760;2023-07-09T12:32:49;8.80;;;7.00;;
71648;SDS011;70112;45.624;11.760;2023-07-09T12:35:18;10.20;;;7.00;;
71648;SDS011;70112;45.624;11.760;2023-07-09T12:37:46;10.40;;;6.30;;
71648;SDS011;70112;45.624;11.760;2023-07-09T12:40:16;10.00;;;7.00;;
71648;SDS011;70112;45.624;11.760;2023-07-09T12:42:45;8.30;;;7.40;;
71648;SDS011;70112;45.624;11.760;2023-07-09T12:45:18;11.80;;;6.80;;
71648;SDS011;70112;45.624;11.760;2023-07-09T12:47:46;11.40;;;7.40;;
71648;SDS011;70112;45.624;11.760;2023-07-09T12:50:29;9.80;;;7.00;;
71648;SDS011;70112;45.624;11.760;2023-07-09T12:53:13;12.60;;;6.40;;
71648;SDS011;70112;45.624;11.760;2023-07-09T12:55:43;9.20;;;7.40;;
71648;SDS011;70112;45.624;11.760;2023-07-09T12:58:21;10.90;;;7.20;;
71648;SDS011;70112;45.624;11.760;2023-07-09T13:00:50;11.60;;;7.50;;
71648;SDS011;70112;45.624;11.760;2023-07-09T13:03:32;11.50;;;6.90;;
71648;SDS011;70112;45.624;11.760;2023-07-09T13:05:59;10.20;;;7.00;;
71648;SDS011;70112;45.624;11.760;2023-07-09T13:08:28;9.80;;;7.30;;
71648;SDS011;70112;45.624;11.760;2023-07-09T13:10:55;10.20;;;6.80;;
71648;SDS011;70112;45.624;11.760;2023-07-09T13:13:23;9.40;;;7.20;;
71648;SDS011;70112;45.624;11.760;2023-07-09T13:15:56;11.70;;;7.20;;
71648;SDS011;70112;45.624;11.760;2023-07-09T13:18:25;14.50;;;7.30;;
71648;SDS011;70112;45.624;11.760;2023-07-09T13:20:52;8.10;;;6.80;;
71648;SDS011;70112;45.624;11.760;2023-07-09T13:23:29;8.60;;;7.00;;
71648;SDS011;70112;45.624;11.760;2023-07-09T13:25:58;14.60;;;7.10;;
71648;SDS011;70112;45.624;11.760;2023-07-09T13:28:26;9.80;;;6.50;;
71648;SDS011;70112;45.624;11.760;2023-07-09T13:30:57;10.50;;;7.00;;
71648;SDS011;70112;45.624;11.760;2023-07-09T13:33:24;9.80;;;7.10;;
71648;SDS011;70112;45.624;11.760;2023-07-09T13:35:50;10.40;;;6.60;;
71648;SDS011;70112;45.624;11.760;2023-07-09T13:38:20;12.60;;;7.00;;
71648;SDS011;70112;45.624;11.760;2023-07-09T13:40:50;12.00;;;6.50;;
71648;SDS011;70112;45.624;11.760;2023-07-09T13:43:22;10.30;;;6.10;;
71648;SDS011;70112;45.624;11.760;2023-07-09T13:45:52;8.80;;;6.00;;
71648;SDS011;70112;45.624;11.760;2023-07-09T13:48:19;8.30;;;6.30;;
71648;SDS011;70112;45.624;11.760;2023-07-09T13:50:48;8.80;;;6.30;;
71648;SDS011;70112;45.624;11.760;2023-07-09T13:53:18;12.00;;;6.50;;
71648;SDS011;70112;45.624;11.760;2023-07-09T13:55:46;8.20;;;6.60;;
71648;SDS011;70112;45.624;11.760;2023-07-09T13:58:14;13.80;;;6.20;;
71648;SDS011;70112;45.624;11.760;2023-07-09T14:00:42;9.00;;;6.80;;
71648;SDS011;70112;45.624;11.760;2023-07-09T14:03:23;11.70;;;6.50;;
71648;SDS011;70112;45.624;11.760;2023-07-09T14:05:52;12.40;;;6.60;;
71648;SDS011;70112;45.624;11.760;2023-07-09T14:08:19;9.00;;;6.50;;
71648;SDS011;70112;45.624;11.760;2023-07-09T14:10:47;9.10;;;6.20;;
71648;SDS011;70112;45.624;11.760;2023-07-09T14:13:15;9.10;;;6.70;;
71648;SDS011;70112;45.624;11.760;2023-07-09T14:15:42;9.30;;;6.60;;
71648;SDS011;70112;45.624;11.760;2023-07-09T14:18:20;7.20;;;6.40;;
71648;SDS011;70112;45.624;11.760;2023-07-09T14:20:47;8.00;;;6.20;;
71648;SDS011;70112;45.624;11.760;2023-07-09T14:23:16;7.70;;;6.50;;
71648;SDS011;70112;45.624;11.760;2023-07-09T14:25:43;8.30;;;6.30;;
71648;SDS011;70112;45.624;11.760;2023-07-09T14:28:12;9.00;;;6.60;;
71648;SDS011;70112;45.624;11.760;2023-07-09T14:30:38;11.00;;;6.70;;
71648;SDS011;70112;45.624;11.760;2023-07-09T14:33:12;9.80;;;7.00;;
71648;SDS011;70112;45.624;11.760;2023-07-09T14:35:39;9.80;;;6.90;;
71648;SDS011;70112;45.624;11.760;2023-07-09T14:38:15;8.00;;;6.80;;
71648;SDS011;70112;45.624;11.760;2023-07-09T14:40:45;13.10;;;6.60;;
71648;SDS011;70112;45.624;11.760;2023-07-09T14:43:12;8.00;;;6.30;;
71648;SDS011;70112;45.624;11.760;2023-07-09T14:45:39;8.70;;;6.60;;
71648;SDS011;70112;45.624;11.760;2023-07-09T14:48:17;12.70;;;6.70;;
71648;SDS011;70112;45.624;11.760;2023-07-09T14:50:45;12.70;;;6.70;;
71648;SDS011;70112;45.624;11.760;2023-07-09T14:53:24;11.30;;;6.70;;
71648;SDS011;70112;45.624;11.760;2023-07-09T14:55:53;9.40;;;5.80;;
71648;SDS011;70112;45.624;11.760;2023-07-09T14:58:21;10.90;;;7.20;;
71648;SDS011;70112;45.624;11.760;2023-07-09T15:00:49;8.20;;;6.20;;
71648;SDS011;70112;45.624;11.760;2023-07-09T15:03:21;7.70;;;6.10;;
71648;SDS011;70112;45.624;11.760;2023-07-09T15:05:49;8.60;;;6.80;;
71648;SDS011;70112;45.624;11.760;2023-07-09T15:08:19;11.00;;;6.20;;
71648;SDS011;70112;45.624;11.760;2023-07-09T15:10:50;9.80;;;6.60;;
71648;SDS011;70112;45.624;11.760;2023-07-09T15:13:21;8.00;;;6.10;;
71648;SDS011;70112;45.624;11.760;2023-07-09T15:15:51;10.80;;;6.40;;
71648;SDS011;70112;45.624;11.760;2023-07-09T15:18:17;9.80;;;6.40;;
71648;SDS011;70112;45.624;11.760;2023-07-09T15:20:49;9.60;;;6.60;;
71648;SDS011;70112;45.624;11.760;2023-07-09T15:23:17;8.20;;;6.70;;
71648;SDS011;70112;45.624;11.760;2023-07-09T15:25:43;7.90;;;6.90;;
71648;SDS011;70112;45.624;11.760;2023-07-09T15:28:12;10.10;;;6.60;;
71648;SDS011;70112;45.624;11.760;2023-07-09T15:30:37;8.20;;;6.60;;
71648;SDS011;70112;45.624;11.760;2023-07-09T15:33:04;10.90;;;6.30;;
71648;SDS011;70112;45.624;11.760;2023-07-09T15:35:35;11.10;;;7.30;;
71648;SDS011;70112;45.624;11.760;2023-07-09T15:40:43;9.50;;;6.50;;
71648;SDS011;70112;45.624;11.760;2023-07-09T15:43:12;8.30;;;6.60;;
71648;SDS011;70112;45.624;11.760;2023-07-09T15:45:41;10.10;;;6.50;;
71648;SDS011;70112;45.624;11.760;2023-07-09T15:50:48;9.70;;;6.90;;
71648;SDS011;70112;45.624;11.760;2023-07-09T15:53:15;12.70;;;6.70;;
71648;SDS011;70112;45.624;11.760;2023-07-09T15:55:40;9.30;;;7.30;;